Emmanuel Tomasos — C6SS7 — position and weather

sailwx.info

Track history (hours):
 
Tides and Currents Weather Stations Pressure Air Temp Water Temp Dewpoint Dewpoint Depression Visibility Wind Speed Wind Dir Waves Ship Positions

Emmanuel Tomasos

Last reported at 2014-Oct-20 07:07 UTC. Time now 2014-Oct-26 01:10 UTC.
Position N 35°58' E 014°54'.

Length 181 m; draft 11 m.

Type: Tanker. MMSI: 311459000.

Date/timePositionNaut miles runAvg speedWind from/ knotsBaromVisibWave heightAir tempDewpointWater temp
2014-Oct-20 07:07N 35°58' E 014°54'0 0.0
2014-Oct-20 04:28N 35°58' E 014°54'0 0.0
2014-Oct-20 02:31N 35°58' E 014°54'0 0.0
2014-Oct-20 01:04N 35°58' E 014°54'0 0.0
2014-Oct-20 00:31N 35°58' E 014°54'3 0.1
2014-Oct-19 02:07N 35°60' E 014°51'0 0.0
2014-Oct-19 01:31N 35°60' E 014°51'0 0.0
2014-Oct-19 00:19N 35°60' E 014°51'0 0.0
2014-Oct-18 21:31N 35°60' E 014°51'0 0.0
2014-Oct-18 18:17N 35°60' E 014°51'4 5.1
2014-Oct-18 17:33N 36°00' E 014°46'0 0.2
2014-Oct-18 16:33N 36°00' E 014°46'9 8.5
2014-Oct-18 15:33N 35°58' E 014°56'2613.1
2014-Oct-18 13:33N 35°55' E 015°29'35712.5
2014-Oct-17 09:07N 36°24' E 022°49'2012.0
2014-Oct-17 07:27N 36°24' E 023°14'1112.4
2014-Oct-17 06:33N 36°29' E 023°26'1313.1
2014-Oct-17 05:34N 36°36' E 023°40'1413.4
2014-Oct-17 04:33N 36°43' E 023°54'1312.9
2014-Oct-17 03:33N 36°51' E 024°07'1313.1
2014-Oct-17 02:34N 36°58' E 024°21'1313.4
2014-Oct-17 01:33N 37°05' E 024°35'1312.9
2014-Oct-17 00:33N 37°13' E 024°48'1312.9
2014-Oct-16 23:34N 37°22' E 024°60'1312.9
2014-Oct-16 22:33N 37°30' E 025°13'1212.3
2014-Oct-16 21:33N 37°37' E 025°25'1312.5
2014-Oct-16 20:33N 37°46' E 025°36'1312.5
2014-Oct-16 19:32N 37°55' E 025°48'1212.3
2014-Oct-16 18:31N 38°03' E 025°59'8 7.0
2014-Oct-16 17:25N 38°10' E 026°04'  
Track history (hours):
 
Tides and Currents Weather Stations Pressure Air Temp Water Temp Dewpoint Dewpoint Depression Visibility Wind Speed Wind Dir Waves Ship Positions

Emmanuel Tomasos

Last reported at 2014-Oct-20 07:07 UTC. Time now 2014-Oct-26 01:10 UTC.
Position N 35°58' E 014°54'.

Length 181 m; draft 11 m.

Type: Tanker. MMSI: 311459000.

Date/timePositionNaut miles runAvg speedWind from/ knotsBaromVisibWave heightAir tempDewpointWater temp
2014-Oct-20 07:07N 35°58' E 014°54'0 0.0
2014-Oct-20 04:28N 35°58' E 014°54'0 0.0
2014-Oct-20 02:31N 35°58' E 014°54'0 0.0
2014-Oct-20 01:04N 35°58' E 014°54'0 0.0
2014-Oct-20 00:31N 35°58' E 014°54'3 0.1
2014-Oct-19 02:07N 35°60' E 014°51'0 0.0
2014-Oct-19 01:31N 35°60' E 014°51'0 0.0
2014-Oct-19 00:19N 35°60' E 014°51'0 0.0
2014-Oct-18 21:31N 35°60' E 014°51'0 0.0
2014-Oct-18 18:17N 35°60' E 014°51'4 5.1
2014-Oct-18 17:33N 36°00' E 014°46'0 0.2
2014-Oct-18 16:33N 36°00' E 014°46'9 8.5
2014-Oct-18 15:33N 35°58' E 014°56'2613.1
2014-Oct-18 13:33N 35°55' E 015°29'35712.5
2014-Oct-17 09:07N 36°24' E 022°49'2012.0
2014-Oct-17 07:27N 36°24' E 023°14'1112.4
2014-Oct-17 06:33N 36°29' E 023°26'1313.1
2014-Oct-17 05:34N 36°36' E 023°40'1413.4
2014-Oct-17 04:33N 36°43' E 023°54'1312.9
2014-Oct-17 03:33N 36°51' E 024°07'1313.1
2014-Oct-17 02:34N 36°58' E 024°21'1313.4
2014-Oct-17 01:33N 37°05' E 024°35'1312.9
2014-Oct-17 00:33N 37°13' E 024°48'1312.9
2014-Oct-16 23:34N 37°22' E 024°60'1312.9
2014-Oct-16 22:33N 37°30' E 025°13'1212.3
2014-Oct-16 21:33N 37°37' E 025°25'1312.5
2014-Oct-16 20:33N 37°46' E 025°36'1312.5
2014-Oct-16 19:32N 37°55' E 025°48'1212.3
2014-Oct-16 18:31N 38°03' E 025°59'8 7.0
2014-Oct-16 17:25N 38°10' E 026°04'  

Dump ship's entire track history